Time;durP1;ratioP1;P1;durP2;ratioP2;P2;SDS_P1;SDS_P2;PMS_P1;PMS_P2;Temp;Humidity;BMP_temperature;BMP_pressure;BME280_temperature;BME280_humidity;BME280_pressure;Samples;Min_cycle;Max_cycle;Signal;HPM_P1;HPM_P2
2023/04/02 00:01:37;;;;;;;2.10;1.80;;;7.30;99.90;;;;;;5058840;28;20544;-82
2023/04/02 00:04:10;;;;;;;1.47;1.37;;;7.30;99.90;;;;;;5093647;28;20475;-82
2023/04/02 00:06:43;;;;;;;5.30;1.50;;;7.30;99.90;;;;;;5074805;28;20174;-82
2023/04/02 00:09:20;;;;;;;2.73;2.27;;;7.20;99.90;;;;;;5093517;28;20159;-83
2023/04/02 00:11:48;;;;;;;4.10;1.87;;;7.30;99.90;;;;;;5093281;28;20637;-83
2023/04/02 00:14:33;;;;;;;3.97;2.20;;;7.20;99.90;;;;;;5092961;28;20171;-83
2023/04/02 00:17:01;;;;;;;1.93;1.70;;;7.20;99.90;;;;;;5075377;28;20520;-83
2023/04/02 00:19:52;;;;;;;1.80;1.40;;;7.20;99.90;;;;;;5074839;28;20188;-83
2023/04/02 00:22:21;;;;;;;2.03;1.40;;;7.20;99.90;;;;;;5074927;28;20336;-83
2023/04/02 00:24:51;;;;;;;2.77;2.00;;;7.20;99.90;;;;;;5074102;28;20234;-83
2023/04/02 00:27:17;;;;;;;2.43;1.50;;;7.10;99.90;;;;;;5074810;28;20177;-82
2023/04/02 00:29:49;;;;;;;1.57;1.47;;;7.10;99.90;;;;;;5058007;28;20292;-83
2023/04/02 00:32:23;;;;;;;1.47;1.37;;;7.10;99.90;;;;;;5074870;28;20183;-83
2023/04/02 00:34:49;;;;;;;1.53;1.30;;;7.10;99.90;;;;;;5092618;28;20169;-83
2023/04/02 00:37:22;;;;;;;2.83;1.70;;;7.10;99.90;;;;;;5093139;28;20170;-83
2023/04/02 00:39:51;;;;;;;2.00;1.80;;;7.10;99.90;;;;;;5092639;28;20198;-83
2023/04/02 00:42:17;;;;;;;2.50;1.97;;;7.10;99.90;;;;;;5058257;28;20542;-83
2023/04/02 00:44:44;;;;;;;4.10;1.93;;;7.00;99.90;;;;;;5074270;28;20244;-83
2023/04/02 00:47:21;;;;;;;3.23;2.07;;;7.00;99.90;;;;;;5092370;28;20198;-83
2023/04/02 00:49:53;;;;;;;2.83;2.27;;;7.00;99.90;;;;;;5092846;28;20590;-83
2023/04/02 00:52:25;;;;;;;3.17;1.80;;;6.90;99.90;;;;;;5078390;28;20243;-83
2023/04/02 00:55:14;;;;;;;2.57;1.50;;;7.00;99.90;;;;;;5095814;28;20594;-83
2023/04/02 00:57:44;;;;;;;3.20;2.23;;;7.00;99.90;;;;;;5077915;28;20190;-83
2023/04/02 01:00:20;;;;;;;2.73;2.00;;;7.00;99.90;;;;;;5078296;28;20205;-83
2023/04/02 01:03:17;;;;;;;2.07;1.57;;;7.00;99.90;;;;;;5077810;28;20534;-83
2023/04/02 01:05:54;;;;;;;1.90;1.67;;;7.00;99.90;;;;;;5077663;28;20666;-83
2023/04/02 01:08:23;;;;;;;2.07;1.83;;;6.90;99.90;;;;;;5096084;28;20186;-83
2023/04/02 01:11:23;;;;;;;2.20;1.53;;;6.90;99.90;;;;;;5095708;28;20281;-83
2023/04/02 01:14:14;;;;;;;1.40;1.30;;;6.90;99.90;;;;;;5077432;28;20182;-83
2023/04/02 01:16:49;;;;;;;1.83;1.70;;;6.90;99.90;;;;;;5077682;28;20186;-83
2023/04/02 01:19:36;;;;;;;3.07;1.73;;;6.90;99.90;;;;;;5095972;28;20603;-83
2023/04/02 01:22:29;;;;;;;1.40;1.30;;;6.90;99.90;;;;;;5095796;28;20552;-83
2023/04/02 01:24:57;;;;;;;3.57;1.67;;;6.90;99.90;;;;;;5077048;28;21097;-83
2023/04/02 01:27:26;;;;;;;2.23;1.67;;;6.80;99.90;;;;;;5095786;28;20202;-83
2023/04/02 01:29:59;;;;;;;2.17;1.67;;;6.90;99.90;;;;;;5077218;28;20296;-83
2023/04/02 01:32:28;;;;;;;2.97;1.80;;;6.80;99.90;;;;;;5077706;28;20187;-83
2023/04/02 01:34:55;;;;;;;2.17;1.93;;;6.80;99.90;;;;;;5060400;28;20193;-83
2023/04/02 01:37:55;;;;;;;3.03;2.20;;;6.80;99.90;;;;;;5077347;28;20517;-83
2023/04/02 01:40:49;;;;;;;2.67;2.00;;;6.80;99.90;;;;;;5095934;28;20173;-83
2023/04/02 01:43:40;;;;;;;2.73;2.23;;;6.80;99.90;;;;;;5076918;28;20185;-83
2023/04/02 01:46:24;;;;;;;2.47;2.10;;;6.70;99.90;;;;;;5077383;28;20182;-83
2023/04/02 01:48:52;;;;;;;2.57;1.90;;;6.70;99.90;;;;;;5076866;28;20698;-83
2023/04/02 01:51:30;;;;;;;2.37;1.40;;;6.70;99.90;;;;;;5060416;28;20544;-83
2023/04/02 01:54:03;;;;;;;3.40;2.40;;;6.70;99.90;;;;;;5076840;28;20182;-83
2023/04/02 01:56:29;;;;;;;2.07;1.50;;;6.70;99.90;;;;;;5094947;28;20167;-82
2023/04/02 01:58:59;;;;;;;2.63;2.10;;;6.70;99.90;;;;;;5076555;28;20182;-82
2023/04/02 02:01:32;;;;;;;2.47;1.80;;;6.70;99.90;;;;;;5060083;28;20639;-83
2023/04/02 02:03:58;;;;;;;2.23;1.50;;;6.70;99.90;;;;;;5094454;28;20592;-83
2023/04/02 02:06:24;;;;;;;3.07;2.03;;;6.70;99.90;;;;;;5060298;28;20205;-83
2023/04/02 02:08:58;;;;;;;1.43;1.33;;;6.70;99.90;;;;;;5076686;28;20639;-83
2023/04/02 02:11:28;;;;;;;2.30;1.43;;;6.60;99.90;;;;;;5094681;28;20270;-83
2023/04/02 02:14:00;;;;;;;3.30;0.97;;;6.70;99.90;;;;;;5076376;28;20182;-83
2023/04/02 02:16:28;;;;;;;3.23;2.57;;;6.60;99.90;;;;;;5076778;28;20182;-83
2023/04/02 02:19:02;;;;;;;2.07;1.70;;;6.50;99.90;;;;;;5076256;28;20185;-83
2023/04/02 02:21:44;;;;;;;1.83;1.73;;;6.50;99.90;;;;;;5076502;28;20635;-83
2023/04/02 02:24:30;;;;;;;3.57;2.00;;;6.50;99.90;;;;;;5076162;28;20574;-83
2023/04/02 02:27:25;;;;;;;2.17;1.80;;;6.40;99.90;;;;;;5094337;28;20717;-83
2023/04/02 02:30:13;;;;;;;4.10;2.40;;;6.40;99.90;;;;;;5093635;28;20218;-83
2023/04/02 02:33:14;;;;;;;4.20;2.53;;;6.40;99.90;;;;;;5094123;28;20670;-83
2023/04/02 02:35:49;;;;;;;3.23;2.03;;;6.40;99.90;;;;;;5044562;28;20196;-83
2023/04/02 02:38:33;;;;;;;3.10;1.70;;;6.40;99.90;;;;;;5076502;28;20233;-83
2023/04/02 02:41:34;;;;;;;2.07;1.70;;;6.40;99.90;;;;;;5094049;28;20201;-83
2023/04/02 02:44:03;;;;;;;6.93;2.03;;;6.40;99.90;;;;;;5094189;28;20167;-83
2023/04/02 02:46:31;;;;;;;2.50;2.17;;;6.40;99.90;;;;;;5076185;28;20244;-83
2023/04/02 02:48:58;;;;;;;2.23;2.03;;;6.30;99.90;;;;;;5075888;28;20187;-83
2023/04/02 02:51:29;;;;;;;2.73;1.97;;;6.30;99.90;;;;;;5059501;28;20199;-83
2023/04/02 02:54:00;;;;;;;3.77;2.10;;;6.30;99.90;;;;;;5075976;28;20282;-83
2023/04/02 02:56:28;;;;;;;3.70;2.13;;;6.40;99.90;;;;;;5076179;28;20178;-83
2023/04/02 02:58:54;;;;;;;1.87;1.70;;;;;;;;;;5093912;28;20177;-83
2023/04/02 03:01:20;;;;;;;1.50;1.40;;;6.30;99.90;;;;;;5094149;28;20182;-83
2023/04/02 03:03:47;;;;;;;1.93;1.50;;;6.40;99.90;;;;;;5042510;28;20175;-83
2023/04/02 03:06:19;;;;;;;2.40;1.87;;;6.40;99.90;;;;;;5094027;28;20170;-83
2023/04/02 03:08:57;;;;;;;1.97;1.83;;;6.40;99.90;;;;;;5076568;28;20181;-84
2023/04/02 03:11:35;;;;;;;7.20;2.20;;;6.40;99.90;;;;;;5094394;28;20194;-84
2023/04/02 03:14:25;;;;;;;2.03;1.60;;;6.40;99.90;;;;;;5074963;28;20552;-84
2023/04/02 03:16:59;;;;;;;3.23;2.20;;;6.40;99.90;;;;;;5075259;28;20186;-84
2023/04/02 03:19:25;;;;;;;2.03;1.87;;;6.40;99.90;;;;;;5094394;28;20607;-84
2023/04/02 03:22:01;;;;;;;3.87;3.07;;;6.40;99.90;;;;;;5075679;28;20306;-85
2023/04/02 03:24:36;;;;;;;2.57;2.30;;;6.30;99.90;;;;;;5101148;28;20698;-84
2023/04/02 03:27:17;;;;;;;2.37;1.80;;;6.30;99.90;;;;;;5097838;28;20252;-84
2023/04/02 03:30:25;;;;;;;2.93;2.00;;;6.30;99.90;;;;;;5084160;28;20202;-84
2023/04/02 03:32:56;;;;;;;4.13;2.37;;;6.30;99.90;;;;;;5112290;28;20338;-86
2023/04/02 03:35:44;;;;;;;2.30;2.10;;;6.30;99.90;;;;;;5097114;28;20234;-84
2023/04/02 03:38:24;;;;;;;3.27;2.50;;;6.20;99.90;;;;;;5118718;27;20151;-84
2023/04/02 03:41:08;;;;;;;3.20;2.20;;;6.20;99.90;;;;;;5101012;28;20234;-83
2023/04/02 03:43:40;;;;;;;4.00;2.83;;;6.10;99.90;;;;;;5090463;28;20227;-83
2023/04/02 03:46:08;;;;;;;2.80;2.50;;;6.10;99.90;;;;;;5113633;28;20170;-84
2023/04/02 03:48:41;;;;;;;3.07;2.53;;;6.20;99.90;;;;;;5111695;28;20171;-84
2023/04/02 03:51:24;;;;;;;3.87;3.17;;;6.20;99.90;;;;;;5091691;28;20205;-84
2023/04/02 03:53:50;;;;;;;3.33;2.60;;;6.10;99.90;;;;;;5096206;27;20159;-83
2023/04/02 03:56:39;;;;;;;2.57;1.90;;;6.10;99.90;;;;;;5083308;28;20244;-84
2023/04/02 03:59:10;;;;;;;4.83;2.20;;;6.10;99.90;;;;;;5117677;27;20151;-83
2023/04/02 04:01:42;;;;;;;2.67;1.83;;;6.10;99.90;;;;;;5082372;28;20229;-83
2023/04/02 04:04:18;;;;;;;3.10;2.60;;;6.10;99.90;;;;;;5075387;28;20179;-83
2023/04/02 04:06:48;;;;;;;3.40;2.13;;;6.10;99.90;;;;;;5093121;28;20265;-83
2023/04/02 04:09:29;;;;;;;2.90;2.30;;;6.10;99.90;;;;;;5074821;28;20196;-83
2023/04/02 04:12:15;;;;;;;3.70;2.70;;;6.10;99.90;;;;;;5074875;28;20190;-85
2023/04/02 04:14:48;;;;;;;4.10;2.70;;;6.10;99.90;;;;;;5047016;28;20221;-83
2023/04/02 04:17:28;;;;;;;4.67;2.80;;;6.00;99.90;;;;;;5074770;28;20179;-83
2023/04/02 04:20:06;;;;;;;7.77;4.17;;;6.00;99.90;;;;;;5075073;28;20217;-83
2023/04/02 04:22:33;;;;;;;6.37;3.70;;;;;;;;;;5074595;28;20235;-84
2023/04/02 04:25:05;;;;;;;4.60;2.87;;;6.30;99.90;;;;;;5075413;28;20228;-84
2023/04/02 04:27:34;;;;;;;5.13;2.97;;;;;;;;;;5078726;28;20179;-83
2023/04/02 04:30:17;;;;;;;7.83;3.13;;;6.00;99.90;;;;;;5078349;28;20210;-83
2023/04/02 04:33:21;;;;;;;1.90;1.77;;;6.00;99.90;;;;;;5097201;28;20167;-84
2023/04/02 04:35:58;;;;;;;3.20;2.30;;;6.00;99.90;;;;;;5080866;28;20202;-84
2023/04/02 04:38:38;;;;;;;13.57;4.87;;;6.00;99.90;;;;;;5067174;28;20703;-84
2023/04/02 04:41:23;;;;;;;4.23;2.93;;;6.10;99.90;;;;;;5082621;28;20178;-84
2023/04/02 04:44:13;;;;;;;5.83;3.57;;;6.10;99.90;;;;;;5074220;28;20240;-83
2023/04/02 04:46:46;;;;;;;6.63;3.87;;;6.10;99.90;;;;;;5067831;28;20179;-84
2023/04/02 04:49:35;;;;;;;5.83;3.63;;;6.00;99.90;;;;;;5079296;28;20175;-84
2023/04/02 04:52:29;;;;;;;7.23;2.77;;;6.00;99.90;;;;;;5060961;28;20183;-83
2023/04/02 04:54:55;;;;;;;3.33;2.50;;;;;;;;;;5074379;28;20187;-82
2023/04/02 04:57:35;;;;;;;6.07;3.87;;;5.90;99.90;;;;;;5056219;28;20198;-82
2023/04/02 05:00:19;;;;;;;2.80;2.00;;;6.20;99.90;;;;;;5087699;28;20186;-84
2023/04/02 05:02:56;;;;;;;3.87;2.73;;;5.90;99.90;;;;;;5056895;28;20194;-85
2023/04/02 05:05:30;;;;;;;1.80;1.60;;;5.80;99.90;;;;;;5060296;28;20185;-84
2023/04/02 05:08:09;;;;;;;5.03;3.03;;;6.00;99.90;;;;;;5062937;28;20252;-84
2023/04/02 05:10:57;;;;;;;4.40;2.60;;;6.00;99.90;;;;;;5078904;28;20226;-84
2023/04/02 05:13:41;;;;;;;5.40;3.37;;;5.90;99.90;;;;;;5075312;28;20256;-84
2023/04/02 05:16:15;;;;;;;5.23;3.40;;;6.00;99.90;;;;;;5073479;28;20187;-84
2023/04/02 05:18:54;;;;;;;4.77;3.07;;;6.20;99.90;;;;;;5080916;28;20277;-84
2023/04/02 05:21:38;;;;;;;5.90;3.60;;;5.90;99.90;;;;;;5074236;28;20252;-84
2023/04/02 05:25:01;;;;;;;5.23;3.13;;;6.10;99.90;;;;;;5056061;28;20222;-85
2023/04/02 05:27:56;;;;;;;3.57;2.50;;;6.00;99.90;;;;;;4993745;28;21011;-85
2023/04/02 05:30:22;;;;;;;2.70;2.50;;;;;;;;;;4994985;28;20201;-84
2023/04/02 05:33:01;;;;;;;4.70;2.93;;;6.30;99.90;;;;;;5062186;28;20209;-84
2023/04/02 05:35:48;;;;;;;5.67;3.37;;;5.90;99.90;;;;;;5055531;28;20187;-84
2023/04/02 05:38:24;;;;;;;3.20;2.40;;;5.60;99.90;;;;;;5055566;28;20229;-83
2023/04/02 05:40:58;;;;;;;4.20;2.70;;;5.90;99.90;;;;;;5075163;28;20323;-84
2023/04/02 05:43:26;;;;;;;3.43;2.60;;;5.90;99.90;;;;;;5062292;28;20183;-83
2023/04/02 05:45:55;;;;;;;3.67;2.70;;;5.90;99.90;;;;;;5084846;28;20274;-82
2023/04/02 05:48:43;;;;;;;4.73;2.73;;;6.00;99.90;;;;;;5063474;28;20175;-86
2023/04/02 05:51:17;;;;;;;3.83;3.00;;;6.00;99.90;;;;;;5064767;28;20202;-84
2023/04/02 05:53:54;;;;;;;6.43;4.13;;;5.70;99.90;;;;;;5061693;28;20646;-86
2023/04/02 05:56:24;;;;;;;7.28;4.75;;;6.00;99.90;;;;;;5053439;28;20407;-84
2023/04/02 05:58:55;;;;;;;5.03;3.70;;;5.90;99.90;;;;;;5054987;28;20171;-85
2023/04/02 06:01:46;;;;;;;7.27;4.83;;;5.90;99.90;;;;;;5078707;28;20186;-84
2023/04/02 06:04:40;;;;;;;4.07;2.77;;;5.80;99.90;;;;;;5070726;28;20184;-84
2023/04/02 06:07:15;;;;;;;7.57;4.73;;;5.90;99.90;;;;;;5057606;28;20192;-84
2023/04/02 06:09:50;;;;;;;4.73;3.70;;;5.70;99.90;;;;;;5068246;28;20222;-85
2023/04/02 06:12:40;;;;;;;9.10;3.93;;;5.80;99.90;;;;;;5054523;28;20269;-84
2023/04/02 06:15:19;;;;;;;6.80;4.67;;;5.60;99.90;;;;;;5081133;28;20186;-85
2023/04/02 06:18:07;;;;;;;7.53;4.47;;;5.80;99.90;;;;;;5057629;28;20206;-84
2023/04/02 06:20:34;;;;;;;6.27;3.73;;;5.60;99.90;;;;;;5064891;28;20191;-84
2023/04/02 06:23:13;;;;;;;5.60;3.37;;;5.70;99.90;;;;;;5057139;28;20195;-84
2023/04/02 06:25:46;;;;;;;5.60;3.33;;;5.70;99.90;;;;;;5082784;28;20214;-84
2023/04/02 06:28:25;;;;;;;6.60;3.37;;;5.90;99.90;;;;;;5054651;28;20221;-86
2023/04/02 06:30:55;;;;;;;8.60;3.87;;;5.70;99.90;;;;;;5054238;28;20695;-85
2023/04/02 06:33:21;;;;;;;6.07;3.67;;;;;;;;;;5071581;28;20197;-86
2023/04/02 06:35:50;;;;;;;7.37;4.33;;;5.50;99.90;;;;;;5054340;28;20191;-84
2023/04/02 06:38:21;;;;;;;5.33;3.23;;;5.70;99.90;;;;;;5057160;28;20198;-84
2023/04/02 06:40:59;;;;;;;5.23;3.13;;;5.80;99.90;;;;;;5073850;28;20187;-85
2023/04/02 06:43:34;;;;;;;5.70;4.13;;;5.80;99.90;;;;;;5060834;28;20238;-86
2023/04/02 06:46:08;;;;;;;5.57;3.80;;;5.80;99.90;;;;;;5054904;28;20277;-85
2023/04/02 06:48:36;;;;;;;7.13;4.57;;;5.60;99.90;;;;;;5070493;28;20198;-84
2023/04/02 06:51:12;;;;;;;4.37;3.43;;;5.60;99.90;;;;;;5071218;28;20215;-83
2023/04/02 06:53:50;;;;;;;4.87;3.20;;;5.70;99.90;;;;;;5071977;28;20182;-84
2023/04/02 06:56:42;;;;;;;6.57;3.57;;;6.20;99.90;;;;;;5070967;28;20254;-84
2023/04/02 06:59:08;;;;;;;3.40;2.43;;;5.70;99.90;;;;;;5071858;28;20183;-84
2023/04/02 07:01:43;;;;;;;2.93;2.57;;;5.60;99.90;;;;;;5053346;28;20234;-84
2023/04/02 07:04:10;;;;;;;4.23;3.27;;;;;;;;;;5053474;28;20189;-85
2023/04/02 07:06:36;;;;;;;3.77;2.73;;;;;;;;;;5053072;28;20193;-86
2023/04/02 07:09:02;;;;;;;5.23;3.97;;;;;;;;;;5050362;28;20647;-86
2023/04/02 07:11:28;;;;;;;4.00;3.07;;;;;;;;;;5054676;28;20211;-86
2023/04/02 07:13:54;;;;;;;5.50;3.90;;;;;;;;;;5050309;28;20202;-86
2023/04/02 07:16:26;;;;;;;4.70;2.77;;;5.90;99.90;;;;;;5052044;28;20545;-84
2023/04/02 07:18:54;;;;;;;6.40;4.03;;;5.60;99.90;;;;;;5071662;28;20191;-85
2023/04/02 07:21:20;;;;;;;4.43;2.53;;;;;;;;;;5043038;28;20179;-85
2023/04/02 07:23:47;;;;;;;4.87;3.27;;;;;;;;;;5079363;28;20271;-85
2023/04/02 07:26:18;;;;;;;6.70;3.70;;;5.60;99.90;;;;;;5055940;28;20278;-83
2023/04/02 07:28:44;;;;;;;4.10;2.80;;;;;;;;;;5069830;28;20647;-83
2023/04/02 07:31:25;;;;;;;3.40;2.20;;;5.70;99.90;;;;;;5054312;28;20210;-84
2023/04/02 07:33:54;;;;;;;5.73;3.37;;;5.50;99.90;;;;;;5053869;28;20233;-83
2023/04/02 07:36:23;;;;;;;4.53;2.90;;;5.40;99.90;;;;;;5051427;28;20575;-83
2023/04/02 07:38:50;;;;;;;5.40;3.17;;;;;;;;;;5052830;28;20199;-84
2023/04/02 07:41:17;;;;;;;6.57;3.53;;;5.30;99.90;;;;;;5071911;28;20273;-83
2023/04/02 07:43:43;;;;;;;3.57;2.20;;;;;;;;;;5062630;28;20225;-83
2023/04/02 07:46:12;;;;;;;2.20;1.97;;;5.40;99.90;;;;;;5077564;28;20268;-83
2023/04/02 07:48:39;;;;;;;4.67;2.20;;;;;;;;;;5056498;28;20187;-84
2023/04/02 07:51:13;;;;;;;4.47;3.30;;;;;;;;;;5053782;28;20559;-83
2023/04/02 07:53:40;;;;;;;10.13;4.33;;;;;;;;;;5066584;28;20179;-84
2023/04/02 07:56:06;;;;;;;6.60;3.30;;;;;;;;;;5053945;28;20278;-84
2023/04/02 07:58:34;;;;;;;7.23;3.30;;;;;;;;;;5073541;28;20187;-83
2023/04/02 08:01:02;;;;;;;5.43;3.23;;;;;;;;;;5067469;28;20202;-84
2023/04/02 08:03:28;;;;;;;5.23;3.23;;;;;;;;;;5058059;28;20179;-83
2023/04/02 08:05:56;;;;;;;5.07;3.40;;;5.40;99.90;;;;;;5090983;28;20221;-84
2023/04/02 08:08:24;;;;;;;5.93;3.53;;;5.40;99.90;;;;;;5088366;28;20652;-84
2023/04/02 08:10:50;;;;;;;6.83;4.03;;;5.30;99.90;;;;;;5070073;28;20265;-84
2023/04/02 08:13:17;;;;;;;5.70;3.80;;;5.30;99.90;;;;;;5057936;28;20187;-85
2023/04/02 08:15:43;;;;;;;6.40;3.90;;;;;;;;;;5052578;28;20190;-84
2023/04/02 08:18:10;;;;;;;4.87;3.27;;;5.30;99.90;;;;;;5057815;28;20186;-84
2023/04/02 08:20:36;;;;;;;6.00;3.10;;;;;;;;;;5053291;28;20193;-83
2023/04/02 08:23:03;;;;;;;5.70;2.90;;;;;;;;;;5074318;28;20190;-83
2023/04/02 08:25:29;;;;;;;4.23;2.83;;;;;;;;;;5057084;28;20690;-83
2023/04/02 08:27:55;;;;;;;7.80;3.87;;;;;;;;;;5059979;28;20185;-85
2023/04/02 08:30:21;;;;;;;3.50;1.97;;;;;;;;;;5061751;28;20244;-85
2023/04/02 08:32:48;;;;;;;4.30;3.27;;;;;;;;;;5063059;28;20591;-84
2023/04/02 08:35:15;;;;;;;8.10;3.07;;;5.50;99.90;;;;;;5070232;28;20207;-84
2023/04/02 08:37:41;;;;;;;5.87;3.47;;;;;;;;;;5081752;28;20692;-84
2023/04/02 08:40:21;;;;;;;4.67;2.43;;;5.20;99.90;;;;;;5061205;28;20209;-83
2023/04/02 08:43:17;;;;;;;8.57;4.00;;;5.40;99.90;;;;;;5079586;28;20178;-84
2023/04/02 08:46:22;;;;;;;6.63;4.50;;;5.60;99.90;;;;;;5071933;28;20679;-84
2023/04/02 08:48:55;;;;;;;3.73;2.60;;;5.40;99.90;;;;;;5058034;28;20191;-83
2023/04/02 08:51:27;;;;;;;7.23;3.37;;;5.40;99.90;;;;;;5059469;28;20672;-83
2023/04/02 08:53:57;;;;;;;5.43;3.77;;;5.30;99.90;;;;;;5067080;28;20274;-83
2023/04/02 08:56:36;;;;;;;5.03;3.17;;;5.30;99.90;;;;;;5078655;28;20582;-83
2023/04/02 08:59:29;;;;;;;7.17;3.83;;;5.20;99.90;;;;;;5082729;28;20249;-83
2023/04/02 09:01:55;;;;;;;6.17;2.90;;;;;;;;;;5059417;28;20183;-82
2023/04/02 09:04:24;;;;;;;4.73;3.07;;;5.30;99.90;;;;;;5073944;28;20186;-84
2023/04/02 09:06:53;;;;;;;6.77;2.73;;;5.40;99.90;;;;;;5091416;28;20287;-84
2023/04/02 09:09:21;;;;;;;4.20;2.73;;;5.50;99.90;;;;;;5077191;28;20192;-85
2023/04/02 09:12:02;;;;;;;2.90;2.13;;;5.60;99.90;;;;;;5106759;28;20237;-83
2023/04/02 09:14:40;;;;;;;5.77;3.63;;;5.50;99.90;;;;;;5084535;28;20155;-85
2023/04/02 09:17:21;;;;;;;5.90;3.83;;;5.40;99.90;;;;;;5099850;27;20212;-85
2023/04/02 09:20:16;;;;;;;7.07;3.70;;;5.40;99.90;;;;;;5108729;27;20222;-85
2023/04/02 09:22:51;;;;;;;5.17;3.23;;;5.50;99.90;;;;;;5073605;28;20280;-86
2023/04/02 09:25:30;;;;;;;4.33;2.80;;;5.60;99.90;;;;;;5095843;28;20226;-86
2023/04/02 09:27:59;;;;;;;6.13;3.30;;;5.50;99.90;;;;;;5101365;28;20227;-84
2023/04/02 09:30:28;;;;;;;7.17;3.30;;;5.40;99.90;;;;;;5084038;28;20221;-86
2023/04/02 09:32:56;;;;;;;8.87;4.37;;;5.40;99.90;;;;;;5068889;28;20203;-85
2023/04/02 09:35:25;;;;;;;4.20;3.07;;;5.40;99.90;;;;;;5042952;28;20709;-84
2023/04/02 09:38:09;;;;;;;7.10;3.47;;;;;;;;;;5080825;28;20183;-84
2023/04/02 09:40:50;;;;;;;8.40;4.03;;;5.40;99.90;;;;;;5093746;28;20178;-84
2023/04/02 09:43:22;;;;;;;7.13;3.57;;;5.40;99.90;;;;;;5076271;28;20597;-84
2023/04/02 09:45:59;;;;;;;6.77;2.63;;;;;;;;;;5068985;28;20171;-83
2023/04/02 09:48:35;;;;;;;6.57;4.77;;;5.60;99.90;;;;;;5056321;28;20198;-85
2023/04/02 09:51:04;;;;;;;3.13;2.20;;;5.60;99.90;;;;;;5067191;28;20213;-83
2023/04/02 09:53:36;;;;;;;6.27;3.37;;;5.60;99.90;;;;;;5073229;28;20187;-85
2023/04/02 09:56:22;;;;;;;7.43;3.33;;;5.70;99.90;;;;;;5080701;28;20194;-84
2023/04/02 09:59:06;;;;;;;8.43;5.23;;;5.60;99.90;;;;;;5083568;28;20241;-83
2023/04/02 10:01:32;;;;;;;7.47;5.07;;;;;;;;;;5056054;28;20187;-83
2023/04/02 10:04:00;;;;;;;7.07;4.33;;;5.50;99.90;;;;;;5074876;28;20193;-84
2023/04/02 10:06:31;;;;;;;4.30;2.60;;;5.50;99.90;;;;;;5082595;28;20179;-83
2023/04/02 10:08:58;;;;;;;7.17;4.63;;;;;;;;;;5062069;28;20198;-83
2023/04/02 10:11:31;;;;;;;7.63;3.60;;;5.60;99.90;;;;;;5075427;28;20211;-83
2023/04/02 10:14:04;;;;;;;6.40;4.00;;;5.60;99.90;;;;;;5064307;28;20191;-83
2023/04/02 10:16:58;;;;;;;6.03;3.53;;;5.50;99.90;;;;;;5058060;28;20674;-83
2023/04/02 10:19:40;;;;;;;6.57;3.73;;;5.80;99.90;;;;;;5065048;28;20195;-83
2023/04/02 10:22:15;;;;;;;5.63;3.77;;;5.80;99.90;;;;;;5064641;28;20643;-83
2023/04/02 10:24:41;;;;;;;6.50;3.50;;;;;;;;;;5054560;28;20343;-83
2023/04/02 10:27:27;;;;;;;9.83;3.33;;;5.60;99.90;;;;;;5054957;28;20191;-84
2023/04/02 10:30:01;;;;;;;5.67;3.07;;;5.60;99.90;;;;;;5069272;28;20213;-84
2023/04/02 10:32:30;;;;;;;7.53;4.80;;;;;;;;;;5055774;28;20191;-85
2023/04/02 10:35:10;;;;;;;8.93;4.70;;;5.50;99.90;;;;;;5090927;28;20182;-85
2023/04/02 10:37:50;;;;;;;6.53;3.67;;;5.60;99.90;;;;;;5074940;28;20182;-83
2023/04/02 10:40:16;;;;;;;4.50;2.97;;;;;;;;;;5054259;28;20186;-83
2023/04/02 10:43:20;;;;;;;10.13;2.97;;;5.80;99.90;;;;;;5054176;28;20241;-83
2023/04/02 10:45:46;;;;;;;10.37;4.00;;;;;;;;;;5071986;28;20548;-83
2023/04/02 10:48:12;;;;;;;10.63;5.40;;;;;;;;;;5053805;28;20182;-84
2023/04/02 10:50:54;;;;;;;11.57;6.77;;;5.80;99.90;;;;;;5053351;28;20240;-84
2023/04/02 10:53:33;;;;;;;7.73;4.83;;;5.60;99.90;;;;;;5054499;28;20270;-84
2023/04/02 10:56:04;;;;;;;8.87;3.53;;;5.50;99.90;;;;;;5059798;28;20193;-85
2023/04/02 10:58:34;;;;;;;12.30;4.87;;;5.40;99.90;;;;;;5074700;28;20674;-85
2023/04/02 11:01:24;;;;;;;11.60;5.90;;;5.50;99.90;;;;;;5066414;28;20183;-83
2023/04/02 11:03:54;;;;;;;8.70;5.27;;;;;;;;;;5071126;28;20240;-84
2023/04/02 11:06:22;;;;;;;9.10;4.07;;;;;;;;;;5056594;28;20187;-84
2023/04/02 11:08:52;;;;;;;9.90;4.27;;;5.40;99.90;;;;;;5058066;28;20209;-83
2023/04/02 11:11:22;;;;;;;9.03;5.90;;;5.40;99.90;;;;;;5064516;28;20643;-83
2023/04/02 11:14:19;;;;;;;5.93;3.97;;;5.40;99.90;;;;;;5051493;28;20187;-82
2023/04/02 11:16:48;;;;;;;5.53;2.57;;;5.50;99.90;;;;;;5057267;28;20191;-84
2023/04/02 11:19:17;;;;;;;9.70;5.43;;;;;;;;;;5052245;28;20662;-83
2023/04/02 11:21:43;;;;;;;6.83;4.53;;;;;;;;;;5062217;28;20299;-83
2023/04/02 11:24:43;;;;;;;6.27;3.67;;;5.40;99.90;;;;;;5060070;28;20309;-84
2023/04/02 11:27:09;;;;;;;9.13;5.20;;;;;;;;;;5051673;28;20211;-84
2023/04/02 11:29:58;;;;;;;5.13;3.00;;;6.80;99.90;;;;;;5063990;28;20209;-83
2023/04/02 11:32:28;;;;;;;3.03;2.53;;;5.40;99.90;;;;;;5063088;28;20214;-84
2023/04/02 11:34:54;;;;;;;5.93;4.20;;;;;;;;;;5058800;28;20190;-85
2023/04/02 11:37:38;;;;;;;5.90;2.83;;;5.50;99.90;;;;;;5079683;28;20184;-84
2023/04/02 11:40:10;;;;;;;4.37;2.73;;;5.50;99.90;;;;;;5051993;28;20766;-84
2023/04/02 11:42:58;;;;;;;4.83;1.97;;;5.50;99.90;;;;;;5070144;28;20655;-84
2023/04/02 11:45:27;;;;;;;7.83;3.10;;;;;;;;;;5066284;28;20270;-83
2023/04/02 11:48:02;;;;;;;8.20;3.07;;;5.60;99.90;;;;;;5057921;28;20193;-83
2023/04/02 11:50:40;;;;;;;4.03;3.20;;;5.60;99.90;;;;;;5056376;28;20237;-85
2023/04/02 11:53:13;;;;;;;5.57;3.70;;;;;;;;;;5074154;28;20680;-84
2023/04/02 11:55:58;;;;;;;3.50;2.40;;;;;;;;;;5052398;28;20187;-84
2023/04/02 11:58:33;;;;;;;8.87;3.33;;;;;;;;;;5054851;28;20252;-84
2023/04/02 12:00:59;;;;;;;7.50;4.60;;;;;;;;;;5053225;28;20190;-84
2023/04/02 12:04:04;;;;;;;9.20;3.53;;;5.50;99.90;;;;;;5071821;28;20186;-84
2023/04/02 12:06:48;;;;;;;6.47;2.17;;;;;;;;;;5053905;28;20259;-83
2023/04/02 12:09:54;;;;;;;2.97;2.30;;;5.60;99.90;;;;;;5066025;28;20233;-84
2023/04/02 12:12:23;;;;;;;5.80;2.80;;;5.30;99.90;;;;;;5037166;28;20206;-84
2023/04/02 12:14:52;;;;;;;7.53;4.00;;;5.60;99.90;;;;;;5059407;28;20711;-84
2023/04/02 12:17:26;;;;;;;7.10;4.93;;;5.50;99.90;;;;;;5072619;28;20178;-84
2023/04/02 12:19:59;;;;;;;6.30;3.80;;;5.50;99.90;;;;;;5068169;28;20194;-84
2023/04/02 12:22:29;;;;;;;6.10;3.00;;;5.50;99.90;;;;;;5081347;28;20178;-83
2023/04/02 12:24:59;;;;;;;5.40;3.17;;;5.40;99.90;;;;;;5058284;28;20307;-84
2023/04/02 12:27:28;;;;;;;5.93;3.43;;;5.30;99.90;;;;;;5075688;28;20187;-84
2023/04/02 12:30:09;;;;;;;4.80;3.40;;;5.20;99.90;;;;;;5052699;28;20211;-86
2023/04/02 12:32:35;;;;;;;6.13;3.60;;;;;;;;;;5039601;28;20211;-85
2023/04/02 12:35:03;;;;;;;9.67;4.10;;;5.30;99.90;;;;;;5051410;28;20198;-84
2023/04/02 12:37:29;;;;;;;6.70;3.83;;;;;;;;;;5051961;28;20544;-84
2023/04/02 12:39:55;;;;;;;4.00;2.97;;;;;;;;;;5050050;28;20191;-83
2023/04/02 12:42:31;;;;;;;2.47;1.90;;;5.20;99.90;;;;;;5053151;28;20207;-83
2023/04/02 12:44:57;;;;;;;7.43;4.07;;;;;;;;;;5051952;28;20517;-84
2023/04/02 12:47:24;;;;;;;4.77;3.33;;;;;;;;;;5074331;28;20191;-84
2023/04/02 12:49:50;;;;;;;7.67;4.20;;;;;;;;;;5073149;28;20305;-84
2023/04/02 12:52:19;;;;;;;8.93;3.60;;;5.10;99.90;;;;;;5058083;28;20564;-85
2023/04/02 12:55:05;;;;;;;8.33;4.20;;;5.00;99.90;;;;;;5066940;28;20273;-83
2023/04/02 12:57:33;;;;;;;5.43;3.07;;;5.00;99.90;;;;;;5064489;28;20175;-84
2023/04/02 13:00:20;;;;;;;8.13;4.87;;;5.00;99.90;;;;;;5055289;28;20196;-84
2023/04/02 13:02:58;;;;;;;9.88;5.63;;;5.20;99.90;;;;;;5063506;28;20509;-82
2023/04/02 13:05:46;;;;;;;14.47;5.83;;;5.20;99.90;;;;;;5055173;28;20190;-82
2023/04/02 13:08:21;;;;;;;8.10;4.57;;;5.20;99.90;;;;;;5054984;28;20188;-84
2023/04/02 13:10:54;;;;;;;3.43;2.53;;;5.20;99.90;;;;;;5061982;28;20252;-82
2023/04/02 13:13:26;;;;;;;4.43;2.73;;;5.20;99.90;;;;;;5079589;28;20187;-85
2023/04/02 13:16:24;;;;;;;13.83;3.67;;;5.20;99.90;;;;;;5062942;28;20183;-84
2023/04/02 13:18:50;;;;;;;10.07;5.57;;;;;;;;;;5061080;28;20210;-84
2023/04/02 13:21:17;;;;;;;9.20;5.63;;;;;;;;;;5058098;28;20301;-84
2023/04/02 13:23:44;;;;;;;5.40;3.27;;;5.10;99.90;;;;;;5061508;28;20227;-84
2023/04/02 13:26:16;;;;;;;5.63;2.63;;;5.10;99.90;;;;;;5053355;28;20689;-84
2023/04/02 13:28:54;;;;;;;8.20;4.10;;;5.10;99.90;;;;;;5059401;28;20656;-84
2023/04/02 13:31:20;;;;;;;8.20;4.63;;;;;;;;;;5062158;28;20570;-84
2023/04/02 13:33:46;;;;;;;7.97;4.53;;;;;;;;;;5072201;28;20555;-82
2023/04/02 13:36:13;;;;;;;5.83;3.67;;;5.10;99.90;;;;;;5056669;28;20262;-82
2023/04/02 13:38:40;;;;;;;5.50;3.50;;;5.00;99.90;;;;;;5054526;28;20190;-84
2023/04/02 13:41:20;;;;;;;12.03;4.57;;;4.90;99.90;;;;;;5050221;28;20715;-85
2023/04/02 13:43:46;;;;;;;6.60;3.67;;;;;;;;;;5065908;28;20190;-85
2023/04/02 13:46:20;;;;;;;5.17;3.73;;;5.00;99.90;;;;;;5054468;28;20251;-84
2023/04/02 13:48:46;;;;;;;5.20;3.30;;;;;;;;;;5054455;28;20217;-85
2023/04/02 13:51:21;;;;;;;9.30;4.50;;;5.00;99.90;;;;;;5052927;28;20210;-85
2023/04/02 13:53:50;;;;;;;6.43;3.33;;;5.00;99.90;;;;;;5054483;28;20190;-85
2023/04/02 13:56:16;;;;;;;7.60;4.27;;;;;;;;;;5054977;28;20662;-84
2023/04/02 13:58:42;;;;;;;6.93;3.87;;;;;;;;;;5056681;28;20200;-84
2023/04/02 14:01:08;;;;;;;6.93;4.53;;;;;;;;;;5057065;28;20191;-84